sensor_id;sensor_type;location;lat;lon;timestamp;pressure;altitude;pressure_sealevel;temperature;humidity
73860;BME280;62197;51.632;13.700;2023-10-13T00:01:42;100269.88;;;14.04;92.53
73860;BME280;62197;51.632;13.700;2023-10-13T00:04:07;100269.56;;;14.07;92.67
73860;BME280;62197;51.632;13.700;2023-10-13T00:06:33;100270.88;;;14.03;92.63
73860;BME280;62197;51.632;13.700;2023-10-13T00:08:59;100272.03;;;14.00;92.64
73860;BME280;62197;51.632;13.700;2023-10-13T00:11:24;100274.97;;;13.97;92.80
73860;BME280;62197;51.632;13.700;2023-10-13T00:13:52;100275.13;;;13.96;92.68
73860;BME280;62197;51.632;13.700;2023-10-13T00:16:18;100275.25;;;13.86;92.55
73860;BME280;62197;51.632;13.700;2023-10-13T00:18:47;100275.84;;;13.80;93.04
73860;BME280;62197;51.632;13.700;2023-10-13T00:21:13;100275.50;;;13.75;93.30
73860;BME280;62197;51.632;13.700;2023-10-13T00:23:43;100273.31;;;13.70;93.18
73860;BME280;62197;51.632;13.700;2023-10-13T00:26:22;100278.91;;;13.67;93.23
73860;BME280;62197;51.632;13.700;2023-10-13T00:28:55;100272.78;;;13.67;93.50
73860;BME280;62197;51.632;13.700;2023-10-13T00:31:36;100270.97;;;13.67;93.54
73860;BME280;62197;51.632;13.700;2023-10-13T00:34:03;100276.78;;;13.71;93.60
73860;BME280;62197;51.632;13.700;2023-10-13T00:36:37;100269.84;;;13.70;93.42
73860;BME280;62197;51.632;13.700;2023-10-13T00:39:14;100266.34;;;13.69;93.52
73860;BME280;62197;51.632;13.700;2023-10-13T00:41:42;100269.69;;;13.71;93.51
73860;BME280;62197;51.632;13.700;2023-10-13T00:44:16;100274.97;;;13.71;93.49
73860;BME280;62197;51.632;13.700;2023-10-13T00:46:43;100274.97;;;13.71;93.47
73860;BME280;62197;51.632;13.700;2023-10-13T00:49:10;100278.44;;;13.72;93.50
73860;BME280;62197;51.632;13.700;2023-10-13T00:51:41;100277.59;;;13.71;93.35
73860;BME280;62197;51.632;13.700;2023-10-13T00:54:12;100276.78;;;13.71;93.91
73860;BME280;62197;51.632;13.700;2023-10-13T00:56:42;100281.59;;;13.75;93.76
73860;BME280;62197;51.632;13.700;2023-10-13T00:59:18;100282.91;;;13.71;93.22
73860;BME280;62197;51.632;13.700;2023-10-13T01:01:48;100279.78;;;13.76;93.50
73860;BME280;62197;51.632;13.700;2023-10-13T01:04:19;100282.44;;;13.76;93.41
73860;BME280;62197;51.632;13.700;2023-10-13T01:06:44;100284.78;;;13.79;93.43
73860;BME280;62197;51.632;13.700;2023-10-13T01:09:11;100283.09;;;13.78;93.44
73860;BME280;62197;51.632;13.700;2023-10-13T01:11:43;100288.41;;;13.78;93.58
73860;BME280;62197;51.632;13.700;2023-10-13T01:14:10;100288.25;;;13.79;93.34
73860;BME280;62197;51.632;13.700;2023-10-13T01:16:43;100279.47;;;13.79;93.43
73860;BME280;62197;51.632;13.700;2023-10-13T01:19:16;100277.50;;;13.81;93.64
73860;BME280;62197;51.632;13.700;2023-10-13T01:21:49;100275.53;;;13.83;93.29
73860;BME280;62197;51.632;13.700;2023-10-13T01:24:15;100275.69;;;13.81;93.12
73860;BME280;62197;51.632;13.700;2023-10-13T01:26:45;100285.66;;;13.87;93.35
73860;BME280;62197;51.632;13.700;2023-10-13T01:29:16;100282.34;;;13.85;93.23
73860;BME280;62197;51.632;13.700;2023-10-13T01:31:45;100278.56;;;13.88;93.39
73860;BME280;62197;51.632;13.700;2023-10-13T01:34:12;100278.25;;;13.91;92.98
73860;BME280;62197;51.632;13.700;2023-10-13T01:36:38;100273.31;;;13.96;93.03
73860;BME280;62197;51.632;13.700;2023-10-13T01:39:05;100272.19;;;13.99;92.92
73860;BME280;62197;51.632;13.700;2023-10-13T01:41:30;100277.94;;;13.94;92.86
73860;BME280;62197;51.632;13.700;2023-10-13T01:43:56;100279.97;;;14.00;93.00
73860;BME280;62197;51.632;13.700;2023-10-13T01:46:22;100277.81;;;14.04;92.83
73860;BME280;62197;51.632;13.700;2023-10-13T01:48:47;100269.88;;;14.04;92.47
73860;BME280;62197;51.632;13.700;2023-10-13T01:51:13;100265.25;;;14.06;92.56
73860;BME280;62197;51.632;13.700;2023-10-13T01:53:39;100271.53;;;14.05;92.67
73860;BME280;62197;51.632;13.700;2023-10-13T01:56:06;100274.03;;;14.06;92.54
73860;BME280;62197;51.632;13.700;2023-10-13T01:58:40;100266.09;;;14.06;92.59
73860;BME280;62197;51.632;13.700;2023-10-13T02:01:12;100271.22;;;14.08;92.42
73860;BME280;62197;51.632;13.700;2023-10-13T02:03:38;100281.81;;;14.08;92.91
73860;BME280;62197;51.632;13.700;2023-10-13T02:06:13;100273.56;;;14.11;92.69
73860;BME280;62197;51.632;13.700;2023-10-13T02:08:43;100273.59;;;14.19;92.40
73860;BME280;62197;51.632;13.700;2023-10-13T02:11:09;100269.28;;;14.18;92.07
73860;BME280;62197;51.632;13.700;2023-10-13T02:13:35;100263.84;;;14.19;92.13
73860;BME280;62197;51.632;13.700;2023-10-13T02:16:06;100253.75;;;14.15;92.18
73860;BME280;62197;51.632;13.700;2023-10-13T02:18:32;100248.59;;;14.13;92.46
73860;BME280;62197;51.632;13.700;2023-10-13T02:21:07;100255.72;;;14.13;92.18
73860;BME280;62197;51.632;13.700;2023-10-13T02:23:39;100255.34;;;14.08;92.26
73860;BME280;62197;51.632;13.700;2023-10-13T02:26:10;100247.09;;;14.03;92.40
73860;BME280;62197;51.632;13.700;2023-10-13T02:28:40;100254.13;;;13.94;92.66
73860;BME280;62197;51.632;13.700;2023-10-13T02:31:06;100249.16;;;13.91;93.22
73860;BME280;62197;51.632;13.700;2023-10-13T02:33:32;100243.03;;;13.90;93.09
73860;BME280;62197;51.632;13.700;2023-10-13T02:36:03;100247.81;;;13.87;92.92
73860;BME280;62197;51.632;13.700;2023-10-13T02:38:31;100247.28;;;13.83;93.15
73860;BME280;62197;51.632;13.700;2023-10-13T02:41:03;100244.81;;;13.82;93.07
73860;BME280;62197;51.632;13.700;2023-10-13T02:43:35;100235.00;;;13.74;93.20
73860;BME280;62197;51.632;13.700;2023-10-13T02:46:00;100243.56;;;13.68;93.10
73860;BME280;62197;51.632;13.700;2023-10-13T02:48:27;100236.41;;;13.61;93.40
73860;BME280;62197;51.632;13.700;2023-10-13T02:50:59;100241.97;;;13.57;93.40
73860;BME280;62197;51.632;13.700;2023-10-13T02:53:27;100231.88;;;13.53;93.38
73860;BME280;62197;51.632;13.700;2023-10-13T02:55:54;100230.03;;;13.45;93.14
73860;BME280;62197;51.632;13.700;2023-10-13T02:58:31;100221.88;;;13.39;93.53
73860;BME280;62197;51.632;13.700;2023-10-13T03:01:07;100226.94;;;13.32;93.69
73860;BME280;62197;51.632;13.700;2023-10-13T03:03:43;100226.13;;;13.32;93.81
73860;BME280;62197;51.632;13.700;2023-10-13T03:06:13;100220.16;;;13.30;93.69
73860;BME280;62197;51.632;13.700;2023-10-13T03:08:38;100222.28;;;13.26;93.91
73860;BME280;62197;51.632;13.700;2023-10-13T03:11:04;100205.91;;;13.22;93.80
73860;BME280;62197;51.632;13.700;2023-10-13T03:13:31;100212.47;;;13.18;93.92
73860;BME280;62197;51.632;13.700;2023-10-13T03:15:58;100211.22;;;13.13;93.62
73860;BME280;62197;51.632;13.700;2023-10-13T03:18:24;100218.13;;;13.23;93.83
73860;BME280;62197;51.632;13.700;2023-10-13T03:20:50;100215.47;;;13.23;93.71
73860;BME280;62197;51.632;13.700;2023-10-13T03:23:24;100221.22;;;13.19;94.00
73860;BME280;62197;51.632;13.700;2023-10-13T03:25:49;100212.50;;;13.09;93.59
73860;BME280;62197;51.632;13.700;2023-10-13T03:28:15;100212.06;;;13.13;94.02
73860;BME280;62197;51.632;13.700;2023-10-13T03:30:43;100206.25;;;13.10;93.63
73860;BME280;62197;51.632;13.700;2023-10-13T03:33:09;100197.19;;;13.12;93.93
73860;BME280;62197;51.632;13.700;2023-10-13T03:35:39;100197.34;;;13.11;94.08
73860;BME280;62197;51.632;13.700;2023-10-13T03:38:08;100194.25;;;13.15;93.76
73860;BME280;62197;51.632;13.700;2023-10-13T03:40:44;100195.13;;;13.16;94.19
73860;BME280;62197;51.632;13.700;2023-10-13T03:43:28;100194.50;;;13.22;94.29
73860;BME280;62197;51.632;13.700;2023-10-13T03:45:55;100193.75;;;13.30;94.01
73860;BME280;62197;51.632;13.700;2023-10-13T03:48:26;100193.81;;;13.38;93.74
73860;BME280;62197;51.632;13.700;2023-10-13T03:50:53;100193.34;;;13.42;93.73
73860;BME280;62197;51.632;13.700;2023-10-13T03:53:41;100191.22;;;13.46;93.81
73860;BME280;62197;51.632;13.700;2023-10-13T03:56:20;100189.94;;;13.50;93.60
73860;BME280;62197;51.632;13.700;2023-10-13T03:59:06;100180.84;;;13.52;93.56
73860;BME280;62197;51.632;13.700;2023-10-13T04:01:34;100183.31;;;13.54;93.77
73860;BME280;62197;51.632;13.700;2023-10-13T04:04:08;100183.00;;;13.57;93.64
73860;BME280;62197;51.632;13.700;2023-10-13T04:06:36;100184.66;;;13.58;93.66
73860;BME280;62197;51.632;13.700;2023-10-13T04:09:14;100179.91;;;13.62;93.73
73860;BME280;62197;51.632;13.700;2023-10-13T04:12:05;100184.66;;;13.58;93.73
73860;BME280;62197;51.632;13.700;2023-10-13T04:14:36;100180.13;;;13.68;93.60
73860;BME280;62197;51.632;13.700;2023-10-13T04:17:20;100174.47;;;13.63;93.52
73860;BME280;62197;51.632;13.700;2023-10-13T04:19:51;100175.81;;;13.67;93.09
73860;BME280;62197;51.632;13.700;2023-10-13T04:22:42;100173.69;;;13.71;93.55
73860;BME280;62197;51.632;13.700;2023-10-13T04:25:18;100175.34;;;13.72;93.45
73860;BME280;62197;51.632;13.700;2023-10-13T04:30:37;100168.88;;;13.66;93.51
73860;BME280;62197;51.632;13.700;2023-10-13T04:33:28;100159.34;;;13.73;93.28
73860;BME280;62197;51.632;13.700;2023-10-13T04:36:12;100147.25;;;13.71;93.34
73860;BME280;62197;51.632;13.700;2023-10-13T04:38:51;100149.44;;;13.75;93.20
73860;BME280;62197;51.632;13.700;2023-10-13T04:41:27;100155.69;;;13.74;93.14
73860;BME280;62197;51.632;13.700;2023-10-13T04:44:12;100158.34;;;13.74;93.36
73860;BME280;62197;51.632;13.700;2023-10-13T04:47:13;100153.69;;;13.68;93.42
73860;BME280;62197;51.632;13.700;2023-10-13T04:49:46;100153.38;;;13.71;93.75
73860;BME280;62197;51.632;13.700;2023-10-13T04:52:11;100149.75;;;13.72;93.94
73860;BME280;62197;51.632;13.700;2023-10-13T04:54:43;100144.66;;;13.79;93.67
73860;BME280;62197;51.632;13.700;2023-10-13T04:57:34;100142.16;;;13.77;93.93
73860;BME280;62197;51.632;13.700;2023-10-13T05:00:12;100142.22;;;13.85;93.69
73860;BME280;62197;51.632;13.700;2023-10-13T05:02:41;100147.34;;;13.87;93.49
73860;BME280;62197;51.632;13.700;2023-10-13T05:05:20;100144.34;;;13.82;93.68
73860;BME280;62197;51.632;13.700;2023-10-13T05:08:04;100143.50;;;13.81;93.67
73860;BME280;62197;51.632;13.700;2023-10-13T05:10:48;100141.34;;;13.77;93.44
73860;BME280;62197;51.632;13.700;2023-10-13T05:13:32;100152.38;;;13.72;93.74
73860;BME280;62197;51.632;13.700;2023-10-13T05:16:16;100152.69;;;13.69;93.91
73860;BME280;62197;51.632;13.700;2023-10-13T05:19:00;100147.25;;;13.71;93.89
73860;BME280;62197;51.632;13.700;2023-10-13T05:21:43;100152.53;;;13.71;93.67
73860;BME280;62197;51.632;13.700;2023-10-13T05:24:29;100157.63;;;13.64;94.03
73860;BME280;62197;51.632;13.700;2023-10-13T05:27:12;100162.53;;;13.59;94.09
73860;BME280;62197;51.632;13.700;2023-10-13T05:29:56;100156.47;;;13.67;94.07
73860;BME280;62197;51.632;13.700;2023-10-13T05:32:40;100152.97;;;13.58;93.97
73860;BME280;62197;51.632;13.700;2023-10-13T05:35:24;100146.03;;;13.57;94.04
73860;BME280;62197;51.632;13.700;2023-10-13T05:38:08;100146.69;;;13.59;93.96
73860;BME280;62197;51.632;13.700;2023-10-13T05:41:03;100157.41;;;13.57;94.20
73860;BME280;62197;51.632;13.700;2023-10-13T05:43:48;100155.13;;;13.63;94.11
73860;BME280;62197;51.632;13.700;2023-10-13T05:46:33;100157.63;;;13.64;94.07
73860;BME280;62197;51.632;13.700;2023-10-13T05:49:02;100163.00;;;13.80;93.79
73860;BME280;62197;51.632;13.700;2023-10-13T05:51:37;100164.88;;;13.88;93.22
73860;BME280;62197;51.632;13.700;2023-10-13T05:54:18;100160.59;;;13.95;92.97
73860;BME280;62197;51.632;13.700;2023-10-13T05:56:48;100168.53;;;13.95;92.53
73860;BME280;62197;51.632;13.700;2023-10-13T05:59:33;100168.38;;;13.97;92.59
73860;BME280;62197;51.632;13.700;2023-10-13T06:02:18;100175.00;;;14.01;92.59
73860;BME280;62197;51.632;13.700;2023-10-13T06:05:07;100173.03;;;14.03;92.36
73860;BME280;62197;51.632;13.700;2023-10-13T06:07:51;100179.81;;;14.13;91.87
73860;BME280;62197;51.632;13.700;2023-10-13T06:10:36;100177.22;;;14.21;92.05
73860;BME280;62197;51.632;13.700;2023-10-13T06:13:20;100177.56;;;14.27;91.62
73860;BME280;62197;51.632;13.700;2023-10-13T06:16:15;100175.72;;;14.19;92.31
73860;BME280;62197;51.632;13.700;2023-10-13T06:19:00;100175.75;;;14.27;92.26
73860;BME280;62197;51.632;13.700;2023-10-13T06:21:45;100159.97;;;14.43;91.76
73860;BME280;62197;51.632;13.700;2023-10-13T06:24:29;100160.28;;;14.56;91.16
73860;BME280;62197;51.632;13.700;2023-10-13T06:27:13;100164.63;;;14.66;91.09
73860;BME280;62197;51.632;13.700;2023-10-13T06:29:58;100163.63;;;14.75;90.49
73860;BME280;62197;51.632;13.700;2023-10-13T06:32:23;100159.84;;;14.85;90.67
73860;BME280;62197;51.632;13.700;2023-10-13T06:34:56;100165.00;;;14.95;90.16
73860;BME280;62197;51.632;13.700;2023-10-13T06:37:32;100160.38;;;15.05;89.49
73860;BME280;62197;51.632;13.700;2023-10-13T06:40:03;100172.59;;;15.22;89.66
73860;BME280;62197;51.632;13.700;2023-10-13T06:42:31;100171.75;;;15.30;89.12
73860;BME280;62197;51.632;13.700;2023-10-13T06:45:00;100173.56;;;15.46;88.57
73860;BME280;62197;51.632;13.700;2023-10-13T06:47:33;100171.25;;;15.59;88.49
73860;BME280;62197;51.632;13.700;2023-10-13T06:49:59;100168.22;;;15.70;88.38
73860;BME280;62197;51.632;13.700;2023-10-13T06:52:25;100160.91;;;15.72;86.66
73860;BME280;62197;51.632;13.700;2023-10-13T06:54:54;100158.56;;;15.85;86.71
73860;BME280;62197;51.632;13.700;2023-10-13T06:57:20;100153.56;;;15.99;86.88
73860;BME280;62197;51.632;13.700;2023-10-13T06:59:46;100150.88;;;16.07;86.00
73860;BME280;62197;51.632;13.700;2023-10-13T07:02:12;100153.63;;;16.13;85.61
73860;BME280;62197;51.632;13.700;2023-10-13T07:04:49;100143.31;;;16.18;84.63
73860;BME280;62197;51.632;13.700;2023-10-13T07:07:22;100147.59;;;16.28;84.79
73860;BME280;62197;51.632;13.700;2023-10-13T07:09:49;100144.91;;;16.36;85.14
73860;BME280;62197;51.632;13.700;2023-10-13T07:12:20;100144.69;;;16.45;84.61
73860;BME280;62197;51.632;13.700;2023-10-13T07:14:51;100137.16;;;16.57;83.82
73860;BME280;62197;51.632;13.700;2023-10-13T07:17:17;100131.94;;;16.64;82.87
73860;BME280;62197;51.632;13.700;2023-10-13T07:19:51;100148.13;;;16.77;82.25
73860;BME280;62197;51.632;13.700;2023-10-13T07:22:21;100154.81;;;16.96;81.08
73860;BME280;62197;51.632;13.700;2023-10-13T07:24:48;100140.94;;;16.85;81.82
73860;BME280;62197;51.632;13.700;2023-10-13T07:27:22;100146.84;;;16.96;82.29
73860;BME280;62197;51.632;13.700;2023-10-13T07:29:49;100134.72;;;16.93;82.03
73860;BME280;62197;51.632;13.700;2023-10-13T07:32:21;100133.38;;;16.97;82.12
73860;BME280;62197;51.632;13.700;2023-10-13T07:34:49;100134.56;;;16.95;82.43
73860;BME280;62197;51.632;13.700;2023-10-13T07:37:15;100120.25;;;16.96;81.74
73860;BME280;62197;51.632;13.700;2023-10-13T07:39:41;100127.06;;;16.98;82.35
73860;BME280;62197;51.632;13.700;2023-10-13T07:42:08;100120.38;;;17.02;81.52
73860;BME280;62197;51.632;13.700;2023-10-13T07:44:40;100124.22;;;17.00;81.73
73860;BME280;62197;51.632;13.700;2023-10-13T07:47:11;100112.41;;;17.02;81.66
73860;BME280;62197;51.632;13.700;2023-10-13T07:49:37;100106.72;;;17.05;82.21
73860;BME280;62197;51.632;13.700;2023-10-13T07:52:11;100104.00;;;17.13;81.02
73860;BME280;62197;51.632;13.700;2023-10-13T07:54:49;100103.63;;;17.31;81.42
73860;BME280;62197;51.632;13.700;2023-10-13T07:57:24;100101.34;;;17.43;80.84
73860;BME280;62197;51.632;13.700;2023-10-13T07:59:55;100101.91;;;17.53;80.76
73860;BME280;62197;51.632;13.700;2023-10-13T08:02:34;100098.91;;;17.56;80.85
73860;BME280;62197;51.632;13.700;2023-10-13T08:05:16;100094.75;;;17.68;80.68
73860;BME280;62197;51.632;13.700;2023-10-13T08:08:04;100093.56;;;17.71;79.75
73860;BME280;62197;51.632;13.700;2023-10-13T08:10:39;100091.16;;;18.05;80.03
73860;BME280;62197;51.632;13.700;2023-10-13T08:13:05;100089.22;;;18.14;78.66
73860;BME280;62197;51.632;13.700;2023-10-13T08:15:39;100090.88;;;18.36;77.95
73860;BME280;62197;51.632;13.700;2023-10-13T08:18:05;100099.16;;;18.27;77.34
73860;BME280;62197;51.632;13.700;2023-10-13T08:20:39;100090.84;;;18.15;78.29
73860;BME280;62197;51.632;13.700;2023-10-13T08:23:05;100085.53;;;18.15;78.63
73860;BME280;62197;51.632;13.700;2023-10-13T08:25:40;100087.69;;;18.26;77.59
73860;BME280;62197;51.632;13.700;2023-10-13T08:28:24;100086.75;;;18.34;76.61
73860;BME280;62197;51.632;13.700;2023-10-13T08:31:08;100095.19;;;18.59;76.36
73860;BME280;62197;51.632;13.700;2023-10-13T08:33:50;100092.09;;;18.76;75.93
73860;BME280;62197;51.632;13.700;2023-10-13T08:36:15;100084.91;;;18.77;76.15
73860;BME280;62197;51.632;13.700;2023-10-13T08:38:53;100082.00;;;18.72;75.03
73860;BME280;62197;51.632;13.700;2023-10-13T08:41:20;100087.88;;;18.61;75.76
73860;BME280;62197;51.632;13.700;2023-10-13T08:43:50;100072.38;;;18.71;75.36
73860;BME280;62197;51.632;13.700;2023-10-13T08:46:16;100077.91;;;18.69;75.02
73860;BME280;62197;51.632;13.700;2023-10-13T08:48:56;100075.44;;;18.68;74.99
73860;BME280;62197;51.632;13.700;2023-10-13T08:51:43;100069.50;;;18.72;75.46
73860;BME280;62197;51.632;13.700;2023-10-13T08:54:16;100073.59;;;18.96;74.71
73860;BME280;62197;51.632;13.700;2023-10-13T08:56:47;100063.09;;;19.16;73.32
73860;BME280;62197;51.632;13.700;2023-10-13T08:59:20;100063.97;;;19.23;73.12
73860;BME280;62197;51.632;13.700;2023-10-13T09:02:13;100059.94;;;19.40;72.43
73860;BME280;62197;51.632;13.700;2023-10-13T09:04:43;100072.28;;;19.48;73.82
73860;BME280;62197;51.632;13.700;2023-10-13T09:07:12;100048.34;;;19.55;72.56
73860;BME280;62197;51.632;13.700;2023-10-13T09:12:16;100054.22;;;19.43;72.60
73860;BME280;62197;51.632;13.700;2023-10-13T09:14:55;100058.94;;;19.82;71.62
73860;BME280;62197;51.632;13.700;2023-10-13T09:17:24;100066.03;;;20.10;71.01
73860;BME280;62197;51.632;13.700;2023-10-13T09:20:07;100063.91;;;19.99;70.59
73860;BME280;62197;51.632;13.700;2023-10-13T09:22:51;100057.91;;;19.83;71.40
73860;BME280;62197;51.632;13.700;2023-10-13T09:25:30;100060.38;;;19.85;71.74
73860;BME280;62197;51.632;13.700;2023-10-13T09:27:59;100036.41;;;19.98;71.72
73860;BME280;62197;51.632;13.700;2023-10-13T09:30:26;100043.75;;;19.90;71.91
73860;BME280;62197;51.632;13.700;2023-10-13T09:33:01;100043.34;;;19.86;72.09
73860;BME280;62197;51.632;13.700;2023-10-13T09:35:43;100033.91;;;19.90;71.63
73860;BME280;62197;51.632;13.700;2023-10-13T09:38:14;100043.53;;;19.84;71.33
73860;BME280;62197;51.632;13.700;2023-10-13T09:40:40;100032.72;;;20.06;71.37
73860;BME280;62197;51.632;13.700;2023-10-13T09:43:12;100045.09;;;20.20;71.17
73860;BME280;62197;51.632;13.700;2023-10-13T09:45:41;100041.38;;;20.14;71.22
73860;BME280;62197;51.632;13.700;2023-10-13T09:48:31;100033.94;;;20.03;71.27
73860;BME280;62197;51.632;13.700;2023-10-13T09:51:02;100035.75;;;19.90;71.13
73860;BME280;62197;51.632;13.700;2023-10-13T09:53:32;100036.75;;;19.82;72.18
73860;BME280;62197;51.632;13.700;2023-10-13T09:56:06;100035.88;;;19.62;72.64
73860;BME280;62197;51.632;13.700;2023-10-13T09:59:09;100032.59;;;19.66;72.49
73860;BME280;62197;51.632;13.700;2023-10-13T10:01:42;100031.63;;;19.80;72.29
73860;BME280;62197;51.632;13.700;2023-10-13T10:04:22;100030.63;;;19.95;72.31
73860;BME280;62197;51.632;13.700;2023-10-13T10:06:57;100026.81;;;20.17;71.30
73860;BME280;62197;51.632;13.700;2023-10-13T10:09:33;100021.28;;;20.25;70.14
73860;BME280;62197;51.632;13.700;2023-10-13T10:15:00;100014.88;;;20.13;71.01
73860;BME280;62197;51.632;13.700;2023-10-13T10:17:38;100014.91;;;20.20;70.53
73860;BME280;62197;51.632;13.700;2023-10-13T10:20:05;100003.59;;;20.31;70.62
73860;BME280;62197;51.632;13.700;2023-10-13T10:22:40;99998.88;;;20.26;70.76
73860;BME280;62197;51.632;13.700;2023-10-13T10:25:09;99998.44;;;20.29;71.28
73860;BME280;62197;51.632;13.700;2023-10-13T10:28:06;99999.50;;;20.22;72.14
73860;BME280;62197;51.632;13.700;2023-10-13T10:30:35;99999.47;;;20.08;71.81
73860;BME280;62197;51.632;13.700;2023-10-13T10:33:01;99996.16;;;20.00;71.99
73860;BME280;62197;51.632;13.700;2023-10-13T10:35:40;100015.88;;;19.99;73.21
73860;BME280;62197;51.632;13.700;2023-10-13T10:38:09;100009.06;;;19.90;74.17
73860;BME280;62197;51.632;13.700;2023-10-13T10:41:03;99998.97;;;19.72;74.86
73860;BME280;62197;51.632;13.700;2023-10-13T10:43:38;100007.91;;;19.51;77.05
73860;BME280;62197;51.632;13.700;2023-10-13T10:46:14;100006.50;;;19.21;79.19
73860;BME280;62197;51.632;13.700;2023-10-13T10:48:41;100005.06;;;18.90;80.51
73860;BME280;62197;51.632;13.700;2023-10-13T10:51:10;99999.66;;;18.77;81.18
73860;BME280;62197;51.632;13.700;2023-10-13T10:53:52;99998.38;;;18.66;80.96
73860;BME280;62197;51.632;13.700;2023-10-13T10:56:26;99996.63;;;18.59;81.56
73860;BME280;62197;51.632;13.700;2023-10-13T10:59:01;99987.63;;;18.60;82.70
73860;BME280;62197;51.632;13.700;2023-10-13T11:01:28;99977.16;;;18.58;82.91
73860;BME280;62197;51.632;13.700;2023-10-13T11:04:00;99971.63;;;18.60;82.82
73860;BME280;62197;51.632;13.700;2023-10-13T11:06:37;99966.81;;;18.70;82.04
73860;BME280;62197;51.632;13.700;2023-10-13T11:09:07;99954.16;;;18.78;82.57
73860;BME280;62197;51.632;13.700;2023-10-13T11:11:51;99944.75;;;18.82;82.26
73860;BME280;62197;51.632;13.700;2023-10-13T11:14:28;99945.56;;;18.83;83.14
73860;BME280;62197;51.632;13.700;2023-10-13T11:16:56;99941.88;;;18.84;82.04
73860;BME280;62197;51.632;13.700;2023-10-13T11:19:40;99937.44;;;18.91;81.71
73860;BME280;62197;51.632;13.700;2023-10-13T11:22:17;99938.63;;;18.89;81.27
73860;BME280;62197;51.632;13.700;2023-10-13T11:24:58;99933.69;;;18.85;81.92
73860;BME280;62197;51.632;13.700;2023-10-13T11:27:31;99921.19;;;18.86;82.54
73860;BME280;62197;51.632;13.700;2023-10-13T11:30:11;99930.38;;;18.77;82.46
73860;BME280;62197;51.632;13.700;2023-10-13T11:32:39;99920.50;;;18.71;83.22
73860;BME280;62197;51.632;13.700;2023-10-13T11:35:10;99911.91;;;18.69;82.67
73860;BME280;62197;51.632;13.700;2023-10-13T11:37:51;99903.66;;;18.64;83.58
73860;BME280;62197;51.632;13.700;2023-10-13T11:40:29;99884.38;;;18.62;83.54
73860;BME280;62197;51.632;13.700;2023-10-13T11:43:40;99886.47;;;18.66;82.60
73860;BME280;62197;51.632;13.700;2023-10-13T11:46:15;99881.97;;;18.67;82.16
73860;BME280;62197;51.632;13.700;2023-10-13T11:48:44;99891.59;;;18.68;82.26
73860;BME280;62197;51.632;13.700;2023-10-13T11:51:15;99884.00;;;18.65;82.74
73860;BME280;62197;51.632;13.700;2023-10-13T11:53:49;99883.59;;;18.68;82.51
73860;BME280;62197;51.632;13.700;2023-10-13T11:56:18;99877.06;;;18.77;82.14
73860;BME280;62197;51.632;13.700;2023-10-13T11:58:46;99871.53;;;18.78;81.91
73860;BME280;62197;51.632;13.700;2023-10-13T12:01:12;99873.22;;;18.86;82.38
73860;BME280;62197;51.632;13.700;2023-10-13T12:03:37;99869.38;;;18.95;81.58
73860;BME280;62197;51.632;13.700;2023-10-13T12:06:21;99871.41;;;18.93;81.12
73860;BME280;62197;51.632;13.700;2023-10-13T12:09:09;99881.94;;;19.08;81.23
73860;BME280;62197;51.632;13.700;2023-10-13T12:11:44;99882.19;;;19.26;80.33
73860;BME280;62197;51.632;13.700;2023-10-13T12:14:11;99875.06;;;19.40;80.11
73860;BME280;62197;51.632;13.700;2023-10-13T12:16:41;99862.97;;;19.44;79.72
73860;BME280;62197;51.632;13.700;2023-10-13T12:19:07;99860.09;;;19.45;79.32
73860;BME280;62197;51.632;13.700;2023-10-13T12:21:36;99855.03;;;19.57;78.53
73860;BME280;62197;51.632;13.700;2023-10-13T12:24:03;99854.56;;;19.47;78.38
73860;BME280;62197;51.632;13.700;2023-10-13T12:26:28;99840.66;;;19.58;78.08
73860;BME280;62197;51.632;13.700;2023-10-13T12:28:58;99842.13;;;19.61;77.80
73860;BME280;62197;51.632;13.700;2023-10-13T12:31:32;99839.66;;;19.72;77.52
73860;BME280;62197;51.632;13.700;2023-10-13T12:33:57;99832.69;;;19.71;76.98
73860;BME280;62197;51.632;13.700;2023-10-13T12:36:32;99820.78;;;19.67;77.15
73860;BME280;62197;51.632;13.700;2023-10-13T12:39:06;99825.69;;;19.64;77.41
73860;BME280;62197;51.632;13.700;2023-10-13T12:41:31;99819.53;;;19.63;76.54
73860;BME280;62197;51.632;13.700;2023-10-13T12:44:15;99814.97;;;19.50;76.78
73860;BME280;62197;51.632;13.700;2023-10-13T12:46:59;99809.47;;;19.52;76.61
73860;BME280;62197;51.632;13.700;2023-10-13T12:49:43;99808.25;;;19.61;76.38
73860;BME280;62197;51.632;13.700;2023-10-13T12:52:12;99810.31;;;19.66;75.47
73860;BME280;62197;51.632;13.700;2023-10-13T12:54:57;99790.59;;;19.73;75.18
73860;BME280;62197;51.632;13.700;2023-10-13T12:57:23;99793.66;;;19.83;74.48
73860;BME280;62197;51.632;13.700;2023-10-13T12:59:51;99798.19;;;19.90;74.53
73860;BME280;62197;51.632;13.700;2023-10-13T13:04:45;99798.59;;;20.06;73.68
73860;BME280;62197;51.632;13.700;2023-10-13T13:07:13;99800.03;;;20.09;72.92
73860;BME280;62197;51.632;13.700;2023-10-13T13:09:41;99790.78;;;20.11;73.17
73860;BME280;62197;51.632;13.700;2023-10-13T13:12:07;99784.59;;;20.24;72.07
73860;BME280;62197;51.632;13.700;2023-10-13T13:14:32;99787.63;;;20.47;71.47
73860;BME280;62197;51.632;13.700;2023-10-13T13:17:00;99772.00;;;20.96;69.67
73860;BME280;62197;51.632;13.700;2023-10-13T13:19:36;99766.50;;;21.29;68.01
73860;BME280;62197;51.632;13.700;2023-10-13T13:22:07;99758.09;;;21.19;68.09
73860;BME280;62197;51.632;13.700;2023-10-13T13:24:42;99768.13;;;20.85;69.54
73860;BME280;62197;51.632;13.700;2023-10-13T13:27:11;99756.97;;;20.57;69.42